createdAt,value
2022-10-28T00:02:22.347Z,101936.47
2022-10-28T00:04:52.239Z,101930.53
2022-10-28T00:07:23.137Z,101926.13
2022-10-28T00:09:51.020Z,101915.59
2022-10-28T00:12:20.860Z,101905.06
2022-10-28T00:14:50.150Z,101899.81
2022-10-28T00:17:18.165Z,101900.72
2022-10-28T00:19:46.401Z,101891.06
2022-10-28T00:22:14.404Z,101894.56
2022-10-28T00:24:42.285Z,101876.91
2022-10-28T00:27:12.351Z,101880.31
2022-10-28T00:29:40.228Z,101882.69
2022-10-28T00:32:09.556Z,101864.00
2022-10-28T00:34:37.724Z,101859.44
2022-10-28T00:37:05.670Z,101856.69
2022-10-28T00:39:33.536Z,101846.00
2022-10-28T00:42:03.687Z,101842.28
2022-10-28T00:45:01.134Z,101837.59
2022-10-28T00:47:44.050Z,101827.81
2022-10-28T00:50:29.750Z,101815.41
2022-10-28T00:53:01.915Z,101798.75
2022-10-28T00:55:30.916Z,101799.50
2022-10-28T00:58:04.933Z,101789.91
2022-10-28T01:00:35.212Z,101796.03
2022-10-28T01:03:05.238Z,101794.31
2022-10-28T01:05:36.100Z,101801.38
2022-10-28T01:08:05.702Z,101807.53
2022-10-28T01:10:52.148Z,101810.16
2022-10-28T01:13:33.676Z,101825.06
2022-10-28T01:16:13.998Z,101815.38
2022-10-28T01:18:52.347Z,101822.44
2022-10-28T01:22:04.238Z,101815.41
2022-10-28T01:24:47.694Z,101811.13
2022-10-28T01:27:57.155Z,101790.91
2022-10-28T01:30:28.232Z,101773.41
2022-10-28T01:33:05.851Z,101783.94
2022-10-28T01:35:49.651Z,101766.38
2022-10-28T01:38:34.768Z,101760.16
2022-10-28T01:41:09.215Z,101764.53
2022-10-28T01:43:47.565Z,101778.53
2022-10-28T01:46:20.556Z,101764.53
2022-10-28T01:48:59.078Z,101747.88
2022-10-28T01:51:33.465Z,101735.66
2022-10-28T01:54:10.521Z,101733.94
2022-10-28T01:56:44.328Z,101737.50
2022-10-28T01:59:16.147Z,101740.13
2022-10-28T02:01:44.510Z,101750.59
2022-10-28T02:04:14.123Z,101752.38
2022-10-28T02:06:44.253Z,101764.66
2022-10-28T02:09:26.556Z,101765.63
2022-10-28T02:12:12.896Z,101765.00
2022-10-28T02:15:06.191Z,101781.06
2022-10-28T02:17:46.158Z,101804.19
2022-10-28T02:20:28.511Z,101799.19
2022-10-28T02:23:03.811Z,101799.34
2022-10-28T02:25:37.075Z,101799.53
2022-10-28T02:28:09.007Z,101795.28
2022-10-28T02:30:46.853Z,101800.53
2022-10-28T02:33:19.902Z,101776.13
2022-10-28T02:35:53.688Z,101775.25
2022-10-28T02:38:27.710Z,101760.41
2022-10-28T02:41:00.814Z,101756.06
2022-10-28T02:43:30.075Z,101742.09
2022-10-28T02:46:01.418Z,101737.75
2022-10-28T02:48:34.439Z,101720.38
2022-10-28T02:51:08.469Z,101690.75
2022-10-28T02:53:44.075Z,101674.31
2022-10-28T02:56:17.388Z,101663.97
2022-10-28T02:58:49.262Z,101645.66
2022-10-28T03:01:17.464Z,101627.34
2022-10-28T03:03:45.580Z,101625.63
2022-10-28T03:06:14.851Z,101635.31
2022-10-28T03:08:42.764Z,101626.50
2022-10-28T03:11:10.697Z,101625.63
2022-10-28T03:13:38.886Z,101622.09
2022-10-28T03:16:08.641Z,101614.38
2022-10-28T03:18:36.566Z,101620.66
2022-10-28T03:21:04.465Z,101606.66
2022-10-28T03:23:33.815Z,101605.91
2022-10-28T03:26:01.697Z,101606.81
2022-10-28T03:28:29.796Z,101597.25
2022-10-28T03:30:57.671Z,101585.91
2022-10-28T03:33:25.507Z,101582.41
2022-10-28T03:35:55.849Z,101581.56
2022-10-28T03:38:23.744Z,101573.69
2022-10-28T03:40:53.135Z,101550.88
2022-10-28T03:43:20.986Z,101540.34
2022-10-28T03:45:49.192Z,101535.84
2022-10-28T03:48:19.085Z,101513.88
2022-10-28T03:50:46.967Z,101511.16
2022-10-28T03:53:16.269Z,101505.91
2022-10-28T03:55:44.196Z,101526.84
2022-10-28T03:58:13.435Z,101543.38
2022-10-28T04:00:41.309Z,101574.00
2022-10-28T04:03:09.187Z,101590.59
2022-10-28T04:05:39.129Z,101623.00
2022-10-28T04:08:07.068Z,101627.50
2022-10-28T04:10:35.010Z,101632.38
2022-10-28T04:13:06.369Z,101649.59
2022-10-28T04:15:35.658Z,101650.28
2022-10-28T04:18:04.123Z,101665.63
2022-10-28T04:20:32.874Z,101683.44
2022-10-28T04:23:01.450Z,101682.84
2022-10-28T04:25:32.278Z,101694.28
2022-10-28T04:28:00.170Z,101711.03
2022-10-28T04:30:28.082Z,101714.66
2022-10-28T04:32:57.407Z,101713.91
2022-10-28T04:35:25.880Z,101733.22
2022-10-28T04:37:54.134Z,101751.59
2022-10-28T04:40:29.415Z,101759.59
2022-10-28T04:43:02.168Z,101770.09
2022-10-28T04:45:30.170Z,101796.38
2022-10-28T04:48:00.473Z,101817.38
2022-10-28T04:50:29.482Z,101840.22
2022-10-28T04:52:57.415Z,101853.38
2022-10-28T04:55:25.324Z,101863.88
2022-10-28T04:57:56.425Z,101879.72
2022-10-28T05:00:25.043Z,101891.09
2022-10-28T05:02:55.873Z,101911.09
2022-10-28T05:05:25.820Z,101911.09
2022-10-28T05:07:53.915Z,101917.97
2022-10-28T05:10:22.200Z,101931.97
2022-10-28T05:12:50.304Z,101940.59
2022-10-28T05:15:21.159Z,101934.44
2022-10-28T05:17:49.081Z,101949.34
2022-10-28T05:20:26.406Z,101939.59
2022-10-28T05:22:57.168Z,101932.56
2022-10-28T05:25:25.803Z,101949.22
2022-10-28T05:27:53.800Z,101978.13
2022-10-28T05:30:24.143Z,102008.75
2022-10-28T05:32:57.664Z,102003.94
2022-10-28T05:35:32.142Z,102013.22
2022-10-28T05:38:01.542Z,102042.69
2022-10-28T05:40:29.700Z,102023.91
2022-10-28T05:42:57.561Z,102028.59
2022-10-28T05:45:25.522Z,102028.09
2022-10-28T05:47:53.949Z,102021.22
2022-10-28T05:50:22.720Z,102016.81
2022-10-28T05:52:52.226Z,102014.41
2022-10-28T05:55:27.739Z,102037.19
2022-10-28T05:57:56.811Z,102033.78
2022-10-28T06:00:27.135Z,102034.06
2022-10-28T06:03:03.080Z,102045.75
2022-10-28T06:05:33.259Z,102059.81
2022-10-28T06:08:03.655Z,102056.31
2022-10-28T06:10:36.249Z,102065.19
2022-10-28T06:13:02.653Z,102066.06
2022-10-28T06:15:30.681Z,102062.84
2022-10-28T06:17:58.704Z,102070.94
2022-10-28T06:20:26.609Z,102080.09
2022-10-28T06:22:56.284Z,102084.13
2022-10-28T06:25:25.949Z,102109.72
2022-10-28T06:27:57.182Z,102089.88
2022-10-28T06:30:26.570Z,102100.59
2022-10-28T06:32:56.297Z,102110.41
2022-10-28T06:35:24.317Z,102131.38
2022-10-28T06:37:54.652Z,102123.63
2022-10-28T06:40:23.322Z,102132.34
2022-10-28T06:43:01.880Z,102136.06
2022-10-28T06:45:31.244Z,102139.72
2022-10-28T06:48:04.746Z,102138.09
2022-10-28T06:50:33.825Z,102137.31
2022-10-28T06:53:01.701Z,102143.56
2022-10-28T06:55:32.592Z,102157.72
2022-10-28T06:58:07.858Z,102159.56
2022-10-28T07:00:40.844Z,102171.94
2022-10-28T07:03:10.324Z,102177.22
2022-10-28T07:05:38.525Z,102189.53
2022-10-28T07:08:07.071Z,102194.78
2022-10-28T07:10:35.037Z,102215.63
2022-10-28T07:13:07.181Z,102226.03
2022-10-28T07:15:35.099Z,102239.00
2022-10-28T07:18:03.044Z,102236.34
2022-10-28T07:20:33.027Z,102245.13
2022-10-28T07:23:02.476Z,102247.84
2022-10-28T07:25:31.801Z,102258.22
2022-10-28T07:28:00.044Z,102271.28
2022-10-28T07:30:36.728Z,102276.41
2022-10-28T07:33:11.096Z,102277.88
2022-10-28T07:35:41.166Z,102293.59
2022-10-28T07:38:09.120Z,102298.88
2022-10-28T07:40:37.089Z,102298.09
2022-10-28T07:43:05.030Z,102304.25
2022-10-28T07:45:35.689Z,102315.66
2022-10-28T07:48:03.810Z,102325.09
2022-10-28T07:50:31.746Z,102334.44
2022-10-28T07:53:01.112Z,102350.84
2022-10-28T07:55:29.096Z,102365.50
2022-10-28T07:57:57.234Z,102364.41
2022-10-28T08:00:25.434Z,102372.94
2022-10-28T08:02:55.166Z,102374.56
2022-10-28T08:05:23.556Z,102385.03
2022-10-28T08:07:51.819Z,102385.16
2022-10-28T08:10:19.931Z,102380.06
2022-10-28T08:12:50.205Z,102382.75
2022-10-28T08:15:18.832Z,102395.97
2022-10-28T08:17:52.566Z,102403.91
2022-10-28T08:20:30.942Z,102415.31
2022-10-28T08:23:02.772Z,102422.28
2022-10-28T08:25:33.202Z,102429.28
2022-10-28T08:28:01.075Z,102432.81
2022-10-28T08:30:30.859Z,102448.53
2022-10-28T08:33:01.212Z,102452.91
2022-10-28T08:35:30.477Z,102464.25
2022-10-28T08:37:59.994Z,102461.53
2022-10-28T08:40:34.238Z,102472.78
2022-10-28T08:43:07.264Z,102481.44
2022-10-28T08:45:45.632Z,102488.34
2022-10-28T08:48:21.396Z,102489.13
2022-10-28T08:51:00.039Z,102489.81
2022-10-28T08:53:33.375Z,102493.16
2022-10-28T08:56:14.296Z,102511.34
2022-10-28T08:58:45.383Z,102505.13
2022-10-28T09:01:22.559Z,102508.53
2022-10-28T09:03:54.392Z,102503.25
2022-10-28T09:06:23.682Z,102498.91
2022-10-28T09:08:52.948Z,102499.00
2022-10-28T09:11:47.952Z,102486.78
2022-10-28T09:14:52.865Z,102491.16
2022-10-28T09:17:22.421Z,102492.09
2022-10-28T09:19:53.805Z,102499.88
2022-10-28T09:22:32.957Z,102500.75
2022-10-28T09:25:03.644Z,102510.28
2022-10-28T09:28:11.055Z,102511.06
2022-10-28T09:44:37.050Z,102505.84
2022-10-28T09:47:14.383Z,102485.50
2022-10-28T09:49:42.981Z,102486.94
2022-10-28T09:52:16.294Z,102463.16
2022-10-28T09:54:49.732Z,102470.19
2022-10-28T09:57:17.766Z,102457.06
2022-10-28T09:59:48.065Z,102452.66
2022-10-28T10:02:27.672Z,102438.63
2022-10-28T10:04:56.708Z,102424.41
2022-10-28T10:07:33.040Z,102415.63
2022-10-28T10:10:06.196Z,102417.19
2022-10-28T10:12:35.186Z,102409.13
2022-10-28T10:15:08.175Z,102399.31
2022-10-28T10:17:40.946Z,102394.91
2022-10-28T10:20:11.147Z,102404.66
2022-10-28T10:22:40.926Z,102406.50
2022-10-28T10:25:26.305Z,102412.66
2022-10-28T10:27:57.748Z,102416.94
2022-10-28T10:30:30.574Z,102423.81
2022-10-28T10:32:59.848Z,102426.25
2022-10-28T10:35:30.512Z,102418.16
2022-10-28T10:38:00.948Z,102417.09
2022-10-28T10:40:32.239Z,102410.66
2022-10-28T10:43:24.643Z,102389.34
2022-10-28T10:46:02.894Z,102383.81
2022-10-28T10:48:32.401Z,102379.94
2022-10-28T10:51:07.044Z,102369.91
2022-10-28T10:53:36.573Z,102364.16
2022-10-28T10:56:07.161Z,102362.66
2022-10-28T10:58:38.814Z,102355.16
2022-10-28T11:01:09.970Z,102345.06
2022-10-28T11:03:41.107Z,102329.75
2022-10-28T11:06:23.495Z,102339.03
2022-10-28T11:08:58.659Z,102307.34
2022-10-28T11:11:34.526Z,102292.31
2022-10-28T11:14:08.834Z,102295.13
2022-10-28T11:16:50.292Z,102290.63
2022-10-28T11:19:22.678Z,102281.03
2022-10-28T11:22:14.027Z,102279.41
2022-10-28T11:25:02.047Z,102278.22
2022-10-28T11:27:40.921Z,102277.06
2022-10-28T11:30:14.971Z,102261.22
2022-10-28T11:33:14.842Z,102250.81
2022-10-28T11:35:54.301Z,102253.44
2022-10-28T11:38:45.576Z,102240.88
2022-10-28T11:41:25.240Z,102246.09
2022-10-28T11:43:55.766Z,102231.66
2022-10-28T11:46:37.733Z,102221.22
2022-10-28T11:49:30.945Z,102212.44
2022-10-28T11:52:09.093Z,102212.41
2022-10-28T11:54:50.320Z,102207.50
2022-10-28T11:57:24.818Z,102200.19
2022-10-28T12:00:15.915Z,102191.06
2022-10-28T12:02:59.796Z,102187.09
2022-10-28T12:05:34.587Z,102178.19
2022-10-28T12:08:22.003Z,102175.81
2022-10-28T12:11:02.269Z,102186.38
2022-10-28T12:13:38.980Z,102190.03
2022-10-28T12:16:14.644Z,102182.13
2022-10-28T12:18:52.670Z,102179.50
2022-10-28T12:21:29.267Z,102181.44
2022-10-28T12:23:59.389Z,102191.53
2022-10-28T12:26:37.075Z,102182.69
2022-10-28T12:29:11.408Z,102172.25
2022-10-28T12:31:44.629Z,102170.03
2022-10-28T12:34:17.510Z,102176.66
2022-10-28T12:36:52.958Z,102177.88
2022-10-28T12:39:26.669Z,102179.59
2022-10-28T12:42:01.276Z,102184.66
2022-10-28T12:44:30.050Z,102180.31
2022-10-28T12:47:17.716Z,102190.94
2022-10-28T12:49:58.524Z,102169.88
2022-10-28T12:52:39.000Z,102177.38
2022-10-28T12:55:17.171Z,102179.91
2022-10-28T12:57:49.218Z,102173.69
2022-10-28T13:00:21.109Z,102178.75
2022-10-28T13:02:56.626Z,102156.75
2022-10-28T13:05:27.645Z,102159.69
2022-10-28T13:08:24.502Z,102151.47
2022-10-28T13:10:59.511Z,102154.31
2022-10-28T13:13:42.371Z,102158.63
2022-10-28T13:16:29.914Z,102149.56
2022-10-28T13:19:26.449Z,102164.31
2022-10-28T13:25:19.349Z,102145.47
2022-10-28T13:27:48.635Z,102138.25
2022-10-28T13:30:18.255Z,102127.09
2022-10-28T13:32:46.908Z,102085.41
2022-10-28T13:35:23.007Z,102077.09
2022-10-28T13:37:54.493Z,102081.16
2022-10-28T13:41:02.881Z,102102.78
2022-10-28T13:44:00.387Z,102119.59
2022-10-28T13:47:06.906Z,102139.38
2022-10-28T13:49:35.449Z,102148.38
2022-10-28T13:52:06.307Z,102164.75
2022-10-28T13:54:53.773Z,102165.16
2022-10-28T13:57:28.763Z,102170.34
2022-10-28T13:59:59.807Z,102161.66
2022-10-28T14:02:38.359Z,102140.88
2022-10-28T14:05:09.336Z,102132.53
2022-10-28T14:07:39.910Z,102129.53
2022-10-28T14:10:24.457Z,102132.97
2022-10-28T14:12:58.927Z,102147.41
2022-10-28T14:15:31.771Z,102151.66
2022-10-28T14:18:15.641Z,102135.53
2022-10-28T14:21:00.934Z,102145.22
2022-10-28T14:24:01.873Z,102125.75
2022-10-28T14:26:30.000Z,102136.72
2022-10-28T14:28:59.603Z,102140.56
2022-10-28T14:31:44.314Z,102146.34
2022-10-28T14:34:46.994Z,102157.91
2022-10-28T14:37:48.333Z,102184.28
2022-10-28T14:40:24.645Z,102198.94
2022-10-28T14:43:27.863Z,102212.75
2022-10-28T14:46:12.479Z,102233.81
2022-10-28T14:48:48.882Z,102241.06
2022-10-28T14:51:20.040Z,102246.44
2022-10-28T14:53:49.564Z,102256.66
2022-10-28T14:58:59.785Z,102265.94
2022-10-28T15:01:36.364Z,102272.66
2022-10-28T15:04:12.072Z,102281.66
2022-10-28T15:06:43.125Z,102274.00
2022-10-28T15:09:19.558Z,102276.88
2022-10-28T15:11:50.862Z,102272.41
2022-10-28T15:14:31.974Z,102262.00
2022-10-28T15:17:10.479Z,102254.81
2022-10-28T15:19:38.695Z,102243.53
2022-10-28T15:22:22.394Z,102229.34
2022-10-28T15:25:04.610Z,102222.84
2022-10-28T15:27:34.949Z,102215.28
2022-10-28T15:30:04.258Z,102202.78
2022-10-28T15:32:35.903Z,102200.06
2022-10-28T15:35:39.365Z,102212.09
2022-10-28T15:38:34.269Z,102203.31
2022-10-28T15:41:02.668Z,102205.34
2022-10-28T15:43:32.309Z,102212.94
2022-10-28T15:46:11.197Z,102224.44
2022-10-28T15:48:40.853Z,102231.31
2022-10-28T15:51:13.381Z,102235.38
2022-10-28T15:53:42.735Z,102256.66
2022-10-28T15:56:20.029Z,102269.75
2022-10-28T15:58:50.498Z,102289.25
2022-10-28T16:01:38.367Z,102300.31
2022-10-28T16:04:28.661Z,102306.53
2022-10-28T16:06:58.997Z,102308.75
2022-10-28T16:09:32.245Z,102319.94
2022-10-28T16:12:04.934Z,102327.69
2022-10-28T16:14:38.764Z,102341.31
2022-10-28T16:17:10.617Z,102351.31
2022-10-28T16:19:42.390Z,102351.88
2022-10-28T16:22:13.771Z,102354.31
2022-10-28T16:24:41.909Z,102377.84
2022-10-28T16:27:18.079Z,102376.78
2022-10-28T16:29:46.169Z,102378.22
2022-10-28T16:32:15.313Z,102393.78
2022-10-28T16:34:44.913Z,102401.25
2022-10-28T16:37:23.342Z,102423.59
2022-10-28T16:39:51.386Z,102424.94
2022-10-28T16:42:20.650Z,102428.78
2022-10-28T16:44:48.862Z,102435.25
2022-10-28T16:47:18.315Z,102445.22
2022-10-28T16:49:54.064Z,102443.75
2022-10-28T16:52:27.449Z,102444.06
2022-10-28T16:54:55.459Z,102445.19
2022-10-28T16:57:26.172Z,102455.97
2022-10-28T16:59:54.588Z,102460.59
2022-10-28T17:02:27.198Z,102464.34
2022-10-28T17:04:56.877Z,102465.47
2022-10-28T17:07:25.299Z,102480.59
2022-10-28T17:09:53.408Z,102473.72
2022-10-28T17:12:23.162Z,102473.03
2022-10-28T17:14:51.751Z,102480.19
2022-10-28T17:17:20.592Z,102489.06
2022-10-28T17:19:48.627Z,102497.94
2022-10-28T17:22:18.228Z,102491.88
2022-10-28T17:24:46.475Z,102488.44
2022-10-28T17:27:14.726Z,102516.66
2022-10-28T17:29:42.797Z,102535.19
2022-10-28T17:32:11.140Z,102535.38
2022-10-28T17:34:39.440Z,102534.66
2022-10-28T17:37:07.993Z,102550.59
2022-10-28T17:39:38.073Z,102556.88
2022-10-28T17:42:06.516Z,102554.34
2022-10-28T17:44:34.678Z,102552.69
2022-10-28T17:47:03.143Z,102557.97
2022-10-28T17:49:34.352Z,102568.59
2022-10-28T17:52:02.557Z,102576.56
2022-10-28T17:54:30.878Z,102586.28
2022-10-28T17:57:00.353Z,102589.81
2022-10-28T17:59:28.573Z,102593.34
2022-10-28T18:01:56.651Z,102601.38
2022-10-28T18:04:26.508Z,102592.75
2022-10-28T18:06:55.679Z,102595.47
2022-10-28T18:09:23.721Z,102607.81
2022-10-28T18:11:52.118Z,102615.81
2022-10-28T18:14:21.957Z,102615.03
2022-10-28T18:16:51.332Z,102623.00
2022-10-28T18:19:22.371Z,102631.00
2022-10-28T18:21:50.557Z,102636.38
2022-10-28T18:24:20.570Z,102648.63
2022-10-28T18:26:51.571Z,102653.09
2022-10-28T18:29:21.022Z,102659.22
2022-10-28T18:31:49.224Z,102661.97
2022-10-28T18:34:17.287Z,102657.69
2022-10-28T18:36:45.349Z,102657.78
2022-10-28T18:39:13.290Z,102661.38
2022-10-28T18:41:42.953Z,102668.47
2022-10-28T18:44:14.196Z,102669.44
2022-10-28T18:46:45.351Z,102672.16
2022-10-28T18:49:13.712Z,102678.31
2022-10-28T18:51:41.878Z,102688.88
2022-10-28T18:54:10.021Z,102689.78
2022-10-28T18:56:38.497Z,102699.44
2022-10-28T18:59:06.693Z,102684.59
2022-10-28T19:01:35.182Z,102682.03
2022-10-28T19:04:05.790Z,102684.72
2022-10-28T19:06:34.665Z,102683.84
2022-10-28T19:09:05.203Z,102696.97
2022-10-28T19:11:34.526Z,102705.75
2022-10-28T19:14:04.513Z,102712.81
2022-10-28T19:16:34.234Z,102717.22
2022-10-28T19:19:05.162Z,102719.03
2022-10-28T19:21:33.891Z,102725.19
2022-10-28T19:24:02.743Z,102736.53
2022-10-28T19:26:32.111Z,102744.47
2022-10-28T19:29:00.185Z,102742.75
2022-10-28T19:31:28.761Z,102747.25
2022-10-28T19:33:56.868Z,102742.97
2022-10-28T19:36:27.980Z,102755.31
2022-10-28T19:38:56.879Z,102751.94
2022-10-28T19:41:26.620Z,102764.31
2022-10-28T19:43:58.164Z,102766.94
2022-10-28T19:46:28.070Z,102765.28
2022-10-28T19:48:57.652Z,102778.44
2022-10-28T19:51:28.785Z,102779.34
2022-10-28T19:53:58.357Z,102785.47
2022-10-28T19:56:26.949Z,102808.28
2022-10-28T19:58:56.525Z,102811.81
2022-10-28T20:01:27.324Z,102812.72
2022-10-28T20:03:56.618Z,102817.19
2022-10-28T20:06:27.925Z,102816.34
2022-10-28T20:08:55.893Z,102814.69
2022-10-28T20:11:26.522Z,102823.47
2022-10-28T20:13:56.524Z,102826.13
2022-10-28T20:16:26.068Z,102826.19
2022-10-28T20:18:55.128Z,102825.31
2022-10-28T20:21:24.859Z,102831.47
2022-10-28T20:23:56.181Z,102825.41
2022-10-28T20:26:25.782Z,102819.31
2022-10-28T20:28:54.066Z,102816.81
2022-10-28T20:31:23.557Z,102803.00
2022-10-28T20:33:53.384Z,102795.31
2022-10-28T20:36:26.668Z,102809.41
2022-10-28T20:38:59.502Z,102808.66
2022-10-28T20:41:29.350Z,102789.53
2022-10-28T20:43:57.720Z,102794.84
2022-10-28T20:46:26.829Z,102792.25
2022-10-28T20:48:56.605Z,102795.78
2022-10-28T20:51:26.711Z,102777.41
2022-10-28T20:53:56.691Z,102777.25
2022-10-28T20:56:26.442Z,102769.28
2022-10-28T20:58:54.943Z,102772.78
2022-10-28T21:01:25.435Z,102761.41
2022-10-28T21:03:55.922Z,102751.75
2022-10-28T21:06:24.268Z,102755.22
2022-10-28T21:08:53.602Z,102764.84
2022-10-28T21:11:26.209Z,102763.97
2022-10-28T21:13:56.191Z,102779.69
2022-10-28T21:16:25.418Z,102787.56
2022-10-28T21:18:54.243Z,102781.41
2022-10-28T21:21:24.123Z,102779.59
2022-10-28T21:23:52.812Z,102783.03
2022-10-28T21:26:22.730Z,102791.69
2022-10-28T21:28:51.868Z,102780.31
2022-10-28T21:31:21.458Z,102770.63
2022-10-28T21:36:19.851Z,102761.78
2022-10-28T21:38:48.425Z,102759.94
2022-10-28T21:41:18.712Z,102760.75
2022-10-28T21:43:49.308Z,102773.84
2022-10-28T21:46:18.147Z,102775.53
2022-10-28T21:48:46.406Z,102766.78
2022-10-28T21:51:16.060Z,102748.41
2022-10-28T21:53:45.127Z,102753.63
2022-10-28T21:56:17.659Z,102759.66
2022-10-28T21:58:49.696Z,102759.59
2022-10-28T22:01:20.350Z,102757.84
2022-10-28T22:03:48.724Z,102761.34
2022-10-28T22:06:16.999Z,102748.16
2022-10-28T22:08:45.019Z,102746.41
2022-10-28T22:11:15.633Z,102748.16
2022-10-28T22:13:43.854Z,102761.28
2022-10-28T22:16:14.774Z,102755.13
2022-10-28T22:18:43.568Z,102762.13
2022-10-28T22:21:13.924Z,102764.81
2022-10-28T22:23:42.155Z,102761.28
2022-10-28T22:26:12.658Z,102756.03
2022-10-28T22:28:41.181Z,102748.16
2022-10-28T22:31:11.391Z,102755.22
2022-10-28T22:33:40.978Z,102761.38
2022-10-28T22:36:10.633Z,102759.66
2022-10-28T22:38:39.006Z,102769.28
2022-10-28T22:41:09.287Z,102758.81
2022-10-28T22:43:37.404Z,102750.88
2022-10-28T22:46:05.937Z,102729.91
2022-10-28T22:48:34.227Z,102714.16
2022-10-28T22:51:04.082Z,102720.28
2022-10-28T22:53:32.614Z,102721.19
2022-10-28T22:56:00.627Z,102715.97
2022-10-28T22:58:29.454Z,102723.81
2022-10-28T23:01:06.527Z,102721.13
2022-10-28T23:03:38.623Z,102722.00
2022-10-28T23:06:09.123Z,102714.94
2022-10-28T23:08:38.900Z,102717.53
2022-10-28T23:11:10.685Z,102704.41
2022-10-28T23:13:39.177Z,102695.63
2022-10-28T23:16:09.245Z,102681.63
2022-10-28T23:18:37.513Z,102681.63
2022-10-28T23:21:08.997Z,102693.00
2022-10-28T23:23:37.007Z,102677.22
2022-10-28T23:26:05.159Z,102678.03
2022-10-28T23:28:33.252Z,102663.16
2022-10-28T23:31:02.228Z,102656.06
2022-10-28T23:33:30.996Z,102653.38
2022-10-28T23:35:59.831Z,102644.69
2022-10-28T23:38:29.506Z,102621.09
2022-10-28T23:41:02.090Z,102621.91
2022-10-28T23:43:31.616Z,102604.47
2022-10-28T23:46:00.248Z,102606.25
2022-10-28T23:48:33.414Z,102599.25
2022-10-28T23:51:01.685Z,102600.09
2022-10-28T23:53:31.480Z,102606.19
2022-10-28T23:55:59.614Z,102596.53
2022-10-28T23:58:27.974Z,102587.78
